sensor_id;sensor_type;location;lat;lon;timestamp;P1;durP1;ratioP1;P2;durP2;ratioP2
70052;SDS011;57398;52.032;4.376;2022-07-29T00:01:41;4.38;;;1.60;;
70052;SDS011;57398;52.032;4.376;2022-07-29T00:04:09;3.92;;;1.50;;
70052;SDS011;57398;52.032;4.376;2022-07-29T00:06:37;5.80;;;1.50;;
70052;SDS011;57398;52.032;4.376;2022-07-29T00:09:05;3.67;;;1.50;;
70052;SDS011;57398;52.032;4.376;2022-07-29T00:11:32;3.75;;;1.23;;
70052;SDS011;57398;52.032;4.376;2022-07-29T00:14:00;4.47;;;1.65;;
70052;SDS011;57398;52.032;4.376;2022-07-29T00:16:28;3.60;;;1.60;;
70052;SDS011;57398;52.032;4.376;2022-07-29T00:18:57;4.13;;;1.50;;
70052;SDS011;57398;52.032;4.376;2022-07-29T00:21:27;7.20;;;1.52;;
70052;SDS011;57398;52.032;4.376;2022-07-29T00:23:55;4.75;;;1.60;;
70052;SDS011;57398;52.032;4.376;2022-07-29T00:26:22;3.78;;;1.70;;
70052;SDS011;57398;52.032;4.376;2022-07-29T00:28:50;5.18;;;1.45;;
70052;SDS011;57398;52.032;4.376;2022-07-29T00:31:37;5.47;;;1.90;;
70052;SDS011;57398;52.032;4.376;2022-07-29T00:34:06;4.32;;;1.80;;
70052;SDS011;57398;52.032;4.376;2022-07-29T00:36:55;5.10;;;1.70;;
70052;SDS011;57398;52.032;4.376;2022-07-29T00:39:22;3.67;;;1.55;;
70052;SDS011;57398;52.032;4.376;2022-07-29T00:41:52;4.05;;;1.70;;
70052;SDS011;57398;52.032;4.376;2022-07-29T00:44:20;4.33;;;1.50;;
70052;SDS011;57398;52.032;4.376;2022-07-29T00:46:47;6.07;;;1.92;;
70052;SDS011;57398;52.032;4.376;2022-07-29T00:49:16;6.30;;;2.25;;
70052;SDS011;57398;52.032;4.376;2022-07-29T00:51:44;3.40;;;1.55;;
70052;SDS011;57398;52.032;4.376;2022-07-29T00:54:11;4.00;;;1.70;;
70052;SDS011;57398;52.032;4.376;2022-07-29T00:56:40;5.80;;;1.87;;
70052;SDS011;57398;52.032;4.376;2022-07-29T00:59:07;5.18;;;1.92;;
70052;SDS011;57398;52.032;4.376;2022-07-29T01:01:34;3.70;;;1.50;;
70052;SDS011;57398;52.032;4.376;2022-07-29T01:04:02;4.38;;;1.80;;
70052;SDS011;57398;52.032;4.376;2022-07-29T01:06:31;4.68;;;2.00;;
70052;SDS011;57398;52.032;4.376;2022-07-29T01:08:59;3.70;;;1.80;;
70052;SDS011;57398;52.032;4.376;2022-07-29T01:11:27;5.80;;;1.90;;
70052;SDS011;57398;52.032;4.376;2022-07-29T01:13:54;4.50;;;1.60;;
70052;SDS011;57398;52.032;4.376;2022-07-29T01:16:24;4.20;;;1.50;;
70052;SDS011;57398;52.032;4.376;2022-07-29T01:18:53;5.03;;;1.83;;
70052;SDS011;57398;52.032;4.376;2022-07-29T01:21:27;4.37;;;1.73;;
70052;SDS011;57398;52.032;4.376;2022-07-29T01:24:14;4.30;;;1.90;;
70052;SDS011;57398;52.032;4.376;2022-07-29T01:26:45;5.40;;;2.00;;
70052;SDS011;57398;52.032;4.376;2022-07-29T01:29:17;5.10;;;2.03;;
70052;SDS011;57398;52.032;4.376;2022-07-29T01:31:47;5.32;;;2.20;;
70052;SDS011;57398;52.032;4.376;2022-07-29T01:34:27;4.50;;;2.00;;
70052;SDS011;57398;52.032;4.376;2022-07-29T01:36:58;6.28;;;2.42;;
70052;SDS011;57398;52.032;4.376;2022-07-29T01:39:30;6.07;;;2.00;;
70052;SDS011;57398;52.032;4.376;2022-07-29T01:41:59;5.82;;;1.92;;
70052;SDS011;57398;52.032;4.376;2022-07-29T01:44:33;5.47;;;2.10;;
70052;SDS011;57398;52.032;4.376;2022-07-29T01:47:02;5.00;;;2.00;;
70052;SDS011;57398;52.032;4.376;2022-07-29T01:49:34;4.32;;;1.73;;
70052;SDS011;57398;52.032;4.376;2022-07-29T01:52:04;6.80;;;1.90;;
70052;SDS011;57398;52.032;4.376;2022-07-29T01:54:34;4.70;;;1.90;;
70052;SDS011;57398;52.032;4.376;2022-07-29T01:57:03;5.30;;;1.88;;
70052;SDS011;57398;52.032;4.376;2022-07-29T01:59:34;7.13;;;2.10;;
70052;SDS011;57398;52.032;4.376;2022-07-29T02:02:03;5.85;;;1.90;;
70052;SDS011;57398;52.032;4.376;2022-07-29T02:04:32;4.78;;;2.00;;
70052;SDS011;57398;52.032;4.376;2022-07-29T02:07:02;4.75;;;1.90;;
70052;SDS011;57398;52.032;4.376;2022-07-29T02:09:31;4.30;;;1.73;;
70052;SDS011;57398;52.032;4.376;2022-07-29T02:12:00;5.07;;;2.10;;
70052;SDS011;57398;52.032;4.376;2022-07-29T02:14:30;6.25;;;2.08;;
70052;SDS011;57398;52.032;4.376;2022-07-29T02:17:01;4.18;;;1.90;;
70052;SDS011;57398;52.032;4.376;2022-07-29T02:19:29;5.93;;;2.30;;
70052;SDS011;57398;52.032;4.376;2022-07-29T02:21:58;6.65;;;1.70;;
70052;SDS011;57398;52.032;4.376;2022-07-29T02:24:27;5.10;;;1.90;;
70052;SDS011;57398;52.032;4.376;2022-07-29T02:26:55;4.82;;;1.90;;
70052;SDS011;57398;52.032;4.376;2022-07-29T02:29:24;5.05;;;1.73;;
70052;SDS011;57398;52.032;4.376;2022-07-29T02:31:52;4.30;;;1.80;;
70052;SDS011;57398;52.032;4.376;2022-07-29T02:34:22;5.70;;;1.90;;
70052;SDS011;57398;52.032;4.376;2022-07-29T02:36:50;4.63;;;2.03;;
70052;SDS011;57398;52.032;4.376;2022-07-29T02:39:18;4.80;;;2.13;;
70052;SDS011;57398;52.032;4.376;2022-07-29T02:41:47;5.65;;;2.25;;
70052;SDS011;57398;52.032;4.376;2022-07-29T02:44:15;4.90;;;2.00;;
70052;SDS011;57398;52.032;4.376;2022-07-29T02:46:45;4.55;;;2.15;;
70052;SDS011;57398;52.032;4.376;2022-07-29T02:49:15;4.80;;;1.97;;
70052;SDS011;57398;52.032;4.376;2022-07-29T02:51:46;4.38;;;1.85;;
70052;SDS011;57398;52.032;4.376;2022-07-29T02:54:20;7.40;;;2.10;;
70052;SDS011;57398;52.032;4.376;2022-07-29T02:56:49;6.28;;;2.22;;
70052;SDS011;57398;52.032;4.376;2022-07-29T02:59:20;4.63;;;2.22;;
70052;SDS011;57398;52.032;4.376;2022-07-29T03:01:49;6.10;;;2.20;;
70052;SDS011;57398;52.032;4.376;2022-07-29T03:04:17;4.18;;;2.15;;
70052;SDS011;57398;52.032;4.376;2022-07-29T03:06:48;4.72;;;2.22;;
70052;SDS011;57398;52.032;4.376;2022-07-29T03:09:15;6.93;;;2.13;;
70052;SDS011;57398;52.032;4.376;2022-07-29T03:11:43;4.88;;;2.10;;
70052;SDS011;57398;52.032;4.376;2022-07-29T03:14:16;6.03;;;2.10;;
70052;SDS011;57398;52.032;4.376;2022-07-29T03:16:44;5.13;;;2.17;;
70052;SDS011;57398;52.032;4.376;2022-07-29T03:19:13;5.68;;;2.30;;
70052;SDS011;57398;52.032;4.376;2022-07-29T03:21:40;5.50;;;2.30;;
70052;SDS011;57398;52.032;4.376;2022-07-29T03:24:09;6.15;;;2.40;;
70052;SDS011;57398;52.032;4.376;2022-07-29T03:26:37;5.67;;;2.20;;
70052;SDS011;57398;52.032;4.376;2022-07-29T03:29:04;6.35;;;2.45;;
70052;SDS011;57398;52.032;4.376;2022-07-29T03:31:32;4.97;;;2.30;;
70052;SDS011;57398;52.032;4.376;2022-07-29T03:34:00;4.95;;;2.25;;
70052;SDS011;57398;52.032;4.376;2022-07-29T03:36:27;5.10;;;2.30;;
70052;SDS011;57398;52.032;4.376;2022-07-29T03:38:55;6.07;;;2.60;;
70052;SDS011;57398;52.032;4.376;2022-07-29T03:41:24;6.10;;;2.33;;
70052;SDS011;57398;52.032;4.376;2022-07-29T03:43:52;6.28;;;2.70;;
70052;SDS011;57398;52.032;4.376;2022-07-29T03:46:20;5.47;;;2.70;;
70052;SDS011;57398;52.032;4.376;2022-07-29T03:48:50;6.15;;;2.70;;
70052;SDS011;57398;52.032;4.376;2022-07-29T03:51:19;5.73;;;2.60;;
70052;SDS011;57398;52.032;4.376;2022-07-29T03:53:59;5.93;;;2.80;;
70052;SDS011;57398;52.032;4.376;2022-07-29T03:56:37;4.93;;;2.33;;
70052;SDS011;57398;52.032;4.376;2022-07-29T03:59:05;6.63;;;2.58;;
70052;SDS011;57398;52.032;4.376;2022-07-29T04:01:33;5.10;;;2.65;;
70052;SDS011;57398;52.032;4.376;2022-07-29T04:04:01;5.17;;;2.70;;
70052;SDS011;57398;52.032;4.376;2022-07-29T04:06:37;7.30;;;2.90;;
70052;SDS011;57398;52.032;4.376;2022-07-29T04:09:04;6.38;;;2.90;;
70052;SDS011;57398;52.032;4.376;2022-07-29T04:11:36;6.47;;;3.40;;
70052;SDS011;57398;52.032;4.376;2022-07-29T04:14:25;7.43;;;3.03;;
70052;SDS011;57398;52.032;4.376;2022-07-29T04:16:52;5.70;;;2.90;;
70052;SDS011;57398;52.032;4.376;2022-07-29T04:19:20;6.38;;;3.17;;
70052;SDS011;57398;52.032;4.376;2022-07-29T04:21:47;5.75;;;3.10;;
70052;SDS011;57398;52.032;4.376;2022-07-29T04:24:15;6.22;;;3.13;;
70052;SDS011;57398;52.032;4.376;2022-07-29T04:26:45;6.90;;;3.10;;
70052;SDS011;57398;52.032;4.376;2022-07-29T04:29:12;8.20;;;3.00;;
70052;SDS011;57398;52.032;4.376;2022-07-29T04:31:40;7.00;;;2.90;;
70052;SDS011;57398;52.032;4.376;2022-07-29T04:34:08;5.80;;;2.88;;
70052;SDS011;57398;52.032;4.376;2022-07-29T04:36:36;5.60;;;2.83;;
70052;SDS011;57398;52.032;4.376;2022-07-29T04:39:03;6.63;;;3.00;;
70052;SDS011;57398;52.032;4.376;2022-07-29T04:41:31;7.27;;;3.10;;
70052;SDS011;57398;52.032;4.376;2022-07-29T04:44:01;7.28;;;2.70;;
70052;SDS011;57398;52.032;4.376;2022-07-29T04:46:32;6.55;;;3.13;;
70052;SDS011;57398;52.032;4.376;2022-07-29T04:49:00;6.03;;;3.05;;
70052;SDS011;57398;52.032;4.376;2022-07-29T04:51:28;5.57;;;2.75;;
70052;SDS011;57398;52.032;4.376;2022-07-29T04:53:55;7.00;;;3.80;;
70052;SDS011;57398;52.032;4.376;2022-07-29T04:56:23;8.18;;;3.42;;
70052;SDS011;57398;52.032;4.376;2022-07-29T04:58:50;6.05;;;3.33;;
70052;SDS011;57398;52.032;4.376;2022-07-29T05:01:21;7.07;;;3.05;;
70052;SDS011;57398;52.032;4.376;2022-07-29T05:03:49;6.50;;;3.33;;
70052;SDS011;57398;52.032;4.376;2022-07-29T05:06:19;5.40;;;3.00;;
70052;SDS011;57398;52.032;4.376;2022-07-29T05:08:46;7.18;;;3.00;;
70052;SDS011;57398;52.032;4.376;2022-07-29T05:11:14;7.03;;;3.10;;
70052;SDS011;57398;52.032;4.376;2022-07-29T05:13:47;6.63;;;3.00;;
70052;SDS011;57398;52.032;4.376;2022-07-29T05:16:17;6.78;;;3.00;;
70052;SDS011;57398;52.032;4.376;2022-07-29T05:18:46;6.30;;;2.70;;
70052;SDS011;57398;52.032;4.376;2022-07-29T05:21:13;5.55;;;2.80;;
70052;SDS011;57398;52.032;4.376;2022-07-29T05:23:41;5.57;;;2.85;;
70052;SDS011;57398;52.032;4.376;2022-07-29T05:26:08;5.32;;;2.72;;
70052;SDS011;57398;52.032;4.376;2022-07-29T05:28:36;5.95;;;2.70;;
70052;SDS011;57398;52.032;4.376;2022-07-29T05:31:03;6.20;;;2.70;;
70052;SDS011;57398;52.032;4.376;2022-07-29T05:33:31;5.80;;;2.70;;
70052;SDS011;57398;52.032;4.376;2022-07-29T05:36:03;5.93;;;2.58;;
70052;SDS011;57398;52.032;4.376;2022-07-29T05:38:33;5.90;;;2.60;;
70052;SDS011;57398;52.032;4.376;2022-07-29T05:41:01;5.60;;;2.55;;
70052;SDS011;57398;52.032;4.376;2022-07-29T05:43:29;6.70;;;2.60;;
70052;SDS011;57398;52.032;4.376;2022-07-29T05:45:57;5.13;;;2.47;;
70052;SDS011;57398;52.032;4.376;2022-07-29T05:48:24;5.10;;;2.20;;
70052;SDS011;57398;52.032;4.376;2022-07-29T05:50:52;4.75;;;2.38;;
70052;SDS011;57398;52.032;4.376;2022-07-29T05:53:23;5.53;;;2.40;;
70052;SDS011;57398;52.032;4.376;2022-07-29T05:55:51;5.53;;;2.20;;
70052;SDS011;57398;52.032;4.376;2022-07-29T05:58:19;5.65;;;2.30;;
70052;SDS011;57398;52.032;4.376;2022-07-29T06:00:47;4.82;;;2.17;;
70052;SDS011;57398;52.032;4.376;2022-07-29T06:03:14;5.60;;;2.50;;
70052;SDS011;57398;52.032;4.376;2022-07-29T06:05:42;4.57;;;2.22;;
70052;SDS011;57398;52.032;4.376;2022-07-29T06:08:10;6.07;;;2.37;;
70052;SDS011;57398;52.032;4.376;2022-07-29T06:10:39;5.78;;;2.20;;
70052;SDS011;57398;52.032;4.376;2022-07-29T06:13:07;4.75;;;2.10;;
70052;SDS011;57398;52.032;4.376;2022-07-29T06:15:34;6.47;;;2.47;;
70052;SDS011;57398;52.032;4.376;2022-07-29T06:18:02;6.45;;;2.60;;
70052;SDS011;57398;52.032;4.376;2022-07-29T06:20:30;5.00;;;2.07;;
70052;SDS011;57398;52.032;4.376;2022-07-29T06:22:58;5.63;;;2.20;;
70052;SDS011;57398;52.032;4.376;2022-07-29T06:25:26;5.57;;;2.30;;
70052;SDS011;57398;52.032;4.376;2022-07-29T06:27:59;4.88;;;2.17;;
70052;SDS011;57398;52.032;4.376;2022-07-29T06:30:27;4.88;;;2.50;;
70052;SDS011;57398;52.032;4.376;2022-07-29T06:32:55;7.17;;;2.70;;
70052;SDS011;57398;52.032;4.376;2022-07-29T06:35:23;4.70;;;2.40;;
70052;SDS011;57398;52.032;4.376;2022-07-29T06:38:07;5.28;;;2.38;;
70052;SDS011;57398;52.032;4.376;2022-07-29T06:40:55;6.70;;;3.00;;
70052;SDS011;57398;52.032;4.376;2022-07-29T06:43:31;7.18;;;2.60;;
70052;SDS011;57398;52.032;4.376;2022-07-29T06:46:00;6.23;;;2.70;;
70052;SDS011;57398;52.032;4.376;2022-07-29T06:48:28;6.22;;;2.58;;
70052;SDS011;57398;52.032;4.376;2022-07-29T06:50:56;4.72;;;2.42;;
70052;SDS011;57398;52.032;4.376;2022-07-29T06:53:24;6.15;;;2.60;;
70052;SDS011;57398;52.032;4.376;2022-07-29T06:55:51;6.05;;;2.42;;
70052;SDS011;57398;52.032;4.376;2022-07-29T06:58:19;5.67;;;2.63;;
70052;SDS011;57398;52.032;4.376;2022-07-29T07:00:48;5.05;;;2.10;;
70052;SDS011;57398;52.032;4.376;2022-07-29T07:03:15;5.97;;;2.50;;
70052;SDS011;57398;52.032;4.376;2022-07-29T07:05:43;5.15;;;2.47;;
70052;SDS011;57398;52.032;4.376;2022-07-29T07:08:11;5.00;;;2.47;;
70052;SDS011;57398;52.032;4.376;2022-07-29T07:10:39;7.00;;;2.80;;
70052;SDS011;57398;52.032;4.376;2022-07-29T07:13:06;5.25;;;2.30;;
70052;SDS011;57398;52.032;4.376;2022-07-29T07:15:35;5.53;;;2.40;;
70052;SDS011;57398;52.032;4.376;2022-07-29T07:18:06;5.72;;;2.40;;
70052;SDS011;57398;52.032;4.376;2022-07-29T07:20:34;5.90;;;2.58;;
70052;SDS011;57398;52.032;4.376;2022-07-29T07:23:01;6.77;;;2.60;;
70052;SDS011;57398;52.032;4.376;2022-07-29T07:25:29;4.95;;;2.50;;
70052;SDS011;57398;52.032;4.376;2022-07-29T07:27:57;5.13;;;2.60;;
70052;SDS011;57398;52.032;4.376;2022-07-29T07:30:24;5.15;;;2.35;;
70052;SDS011;57398;52.032;4.376;2022-07-29T07:32:51;5.13;;;2.40;;
70052;SDS011;57398;52.032;4.376;2022-07-29T07:35:20;6.23;;;2.50;;
70052;SDS011;57398;52.032;4.376;2022-07-29T07:37:48;6.70;;;2.53;;
70052;SDS011;57398;52.032;4.376;2022-07-29T07:40:15;5.10;;;2.40;;
70052;SDS011;57398;52.032;4.376;2022-07-29T07:42:44;7.80;;;2.88;;
70052;SDS011;57398;52.032;4.376;2022-07-29T07:45:11;5.65;;;2.85;;
70052;SDS011;57398;52.032;4.376;2022-07-29T07:47:41;6.43;;;2.63;;
70052;SDS011;57398;52.032;4.376;2022-07-29T07:50:10;6.25;;;2.80;;
70052;SDS011;57398;52.032;4.376;2022-07-29T07:52:49;5.78;;;2.70;;
70052;SDS011;57398;52.032;4.376;2022-07-29T07:55:16;5.63;;;2.80;;
70052;SDS011;57398;52.032;4.376;2022-07-29T07:57:44;4.53;;;2.53;;
70052;SDS011;57398;52.032;4.376;2022-07-29T08:00:12;6.17;;;2.73;;
70052;SDS011;57398;52.032;4.376;2022-07-29T08:02:40;5.75;;;2.72;;
70052;SDS011;57398;52.032;4.376;2022-07-29T08:05:09;6.50;;;2.58;;
70052;SDS011;57398;52.032;4.376;2022-07-29T08:07:38;8.00;;;2.50;;
70052;SDS011;57398;52.032;4.376;2022-07-29T08:10:07;5.25;;;2.50;;
70052;SDS011;57398;52.032;4.376;2022-07-29T08:12:35;5.70;;;2.43;;
70052;SDS011;57398;52.032;4.376;2022-07-29T08:15:03;5.80;;;2.75;;
70052;SDS011;57398;52.032;4.376;2022-07-29T08:17:33;4.97;;;2.60;;
70052;SDS011;57398;52.032;4.376;2022-07-29T08:20:00;6.13;;;2.35;;
70052;SDS011;57398;52.032;4.376;2022-07-29T08:22:28;5.88;;;2.75;;
70052;SDS011;57398;52.032;4.376;2022-07-29T08:24:56;5.77;;;2.40;;
70052;SDS011;57398;52.032;4.376;2022-07-29T08:27:24;4.95;;;2.40;;
70052;SDS011;57398;52.032;4.376;2022-07-29T08:30:08;6.50;;;2.70;;
70052;SDS011;57398;52.032;4.376;2022-07-29T08:32:36;6.00;;;2.40;;
70052;SDS011;57398;52.032;4.376;2022-07-29T08:35:21;5.60;;;2.42;;
70052;SDS011;57398;52.032;4.376;2022-07-29T08:37:49;6.27;;;2.60;;
70052;SDS011;57398;52.032;4.376;2022-07-29T08:40:17;5.28;;;2.28;;
70052;SDS011;57398;52.032;4.376;2022-07-29T08:42:58;7.68;;;2.60;;
70052;SDS011;57398;52.032;4.376;2022-07-29T08:45:26;6.72;;;2.58;;
70052;SDS011;57398;52.032;4.376;2022-07-29T08:47:55;5.60;;;2.75;;
70052;SDS011;57398;52.032;4.376;2022-07-29T08:50:25;5.07;;;2.40;;
70052;SDS011;57398;52.032;4.376;2022-07-29T08:52:53;6.63;;;2.60;;
70052;SDS011;57398;52.032;4.376;2022-07-29T08:55:25;5.93;;;2.63;;
70052;SDS011;57398;52.032;4.376;2022-07-29T08:57:53;6.57;;;2.60;;
70052;SDS011;57398;52.032;4.376;2022-07-29T09:00:24;5.32;;;2.60;;
70052;SDS011;57398;52.032;4.376;2022-07-29T09:02:55;5.17;;;2.50;;
70052;SDS011;57398;52.032;4.376;2022-07-29T09:05:25;6.85;;;3.15;;
70052;SDS011;57398;52.032;4.376;2022-07-29T09:07:53;7.82;;;2.90;;
70052;SDS011;57398;52.032;4.376;2022-07-29T09:10:20;7.10;;;3.38;;
70052;SDS011;57398;52.032;4.376;2022-07-29T09:12:48;7.93;;;3.40;;
70052;SDS011;57398;52.032;4.376;2022-07-29T09:15:15;5.80;;;3.00;;
70052;SDS011;57398;52.032;4.376;2022-07-29T09:17:46;6.20;;;3.10;;
70052;SDS011;57398;52.032;4.376;2022-07-29T09:20:15;5.30;;;2.90;;
70052;SDS011;57398;52.032;4.376;2022-07-29T09:22:43;5.10;;;2.70;;
70052;SDS011;57398;52.032;4.376;2022-07-29T09:25:13;8.82;;;3.10;;
70052;SDS011;57398;52.032;4.376;2022-07-29T09:27:40;6.73;;;2.93;;
70052;SDS011;57398;52.032;4.376;2022-07-29T09:30:09;5.90;;;3.00;;
70052;SDS011;57398;52.032;4.376;2022-07-29T09:35:22;8.82;;;2.83;;
70052;SDS011;57398;52.032;4.376;2022-07-29T09:37:50;6.32;;;2.60;;
70052;SDS011;57398;52.032;4.376;2022-07-29T09:40:19;5.63;;;2.57;;
70052;SDS011;57398;52.032;4.376;2022-07-29T09:42:47;6.00;;;2.70;;
70052;SDS011;57398;52.032;4.376;2022-07-29T09:45:26;6.88;;;2.47;;
70052;SDS011;57398;52.032;4.376;2022-07-29T09:47:53;6.22;;;2.25;;
70052;SDS011;57398;52.032;4.376;2022-07-29T09:50:33;5.75;;;2.80;;
70052;SDS011;57398;52.032;4.376;2022-07-29T09:53:01;5.57;;;2.70;;
70052;SDS011;57398;52.032;4.376;2022-07-29T09:55:28;5.95;;;2.80;;
70052;SDS011;57398;52.032;4.376;2022-07-29T09:58:14;7.18;;;2.83;;
70052;SDS011;57398;52.032;4.376;2022-07-29T10:00:42;5.10;;;2.78;;
70052;SDS011;57398;52.032;4.376;2022-07-29T10:03:10;6.20;;;2.88;;
70052;SDS011;57398;52.032;4.376;2022-07-29T10:05:39;6.57;;;2.80;;
70052;SDS011;57398;52.032;4.376;2022-07-29T10:08:08;5.40;;;2.90;;
70052;SDS011;57398;52.032;4.376;2022-07-29T10:10:36;6.25;;;3.30;;
70052;SDS011;57398;52.032;4.376;2022-07-29T10:13:05;5.68;;;2.85;;
70052;SDS011;57398;52.032;4.376;2022-07-29T10:15:40;7.18;;;3.22;;
70052;SDS011;57398;52.032;4.376;2022-07-29T10:18:12;6.67;;;3.10;;
70052;SDS011;57398;52.032;4.376;2022-07-29T10:20:41;6.72;;;2.70;;
70052;SDS011;57398;52.032;4.376;2022-07-29T10:23:09;6.45;;;2.83;;
70052;SDS011;57398;52.032;4.376;2022-07-29T10:25:36;5.32;;;2.50;;
70052;SDS011;57398;52.032;4.376;2022-07-29T10:28:05;4.65;;;2.25;;
70052;SDS011;57398;52.032;4.376;2022-07-29T10:30:32;6.07;;;2.63;;
70052;SDS011;57398;52.032;4.376;2022-07-29T10:38:37;8.60;;;2.45;;
70052;SDS011;57398;52.032;4.376;2022-07-29T10:41:16;5.18;;;2.10;;
70052;SDS011;57398;52.032;4.376;2022-07-29T10:44:02;7.10;;;2.20;;
70052;SDS011;57398;52.032;4.376;2022-07-29T10:46:34;5.10;;;2.17;;
70052;SDS011;57398;52.032;4.376;2022-07-29T10:49:05;5.60;;;2.10;;
70052;SDS011;57398;52.032;4.376;2022-07-29T10:57:16;5.72;;;2.00;;
70052;SDS011;57398;52.032;4.376;2022-07-29T10:59:46;3.50;;;1.70;;
70052;SDS011;57398;52.032;4.376;2022-07-29T11:02:40;5.18;;;2.15;;
70052;SDS011;57398;52.032;4.376;2022-07-29T11:05:10;6.47;;;1.90;;
70052;SDS011;57398;52.032;4.376;2022-07-29T11:07:39;5.38;;;2.30;;
70052;SDS011;57398;52.032;4.376;2022-07-29T11:10:23;5.18;;;2.20;;
70052;SDS011;57398;52.032;4.376;2022-07-29T11:12:58;4.83;;;2.10;;
70052;SDS011;57398;52.032;4.376;2022-07-29T11:15:25;5.93;;;2.00;;
70052;SDS011;57398;52.032;4.376;2022-07-29T11:18:03;6.32;;;2.10;;
70052;SDS011;57398;52.032;4.376;2022-07-29T11:20:34;6.53;;;2.20;;
70052;SDS011;57398;52.032;4.376;2022-07-29T11:23:16;4.20;;;1.50;;
70052;SDS011;57398;52.032;4.376;2022-07-29T11:25:44;5.37;;;2.10;;
70052;SDS011;57398;52.032;4.376;2022-07-29T11:28:19;4.85;;;2.03;;
70052;SDS011;57398;52.032;4.376;2022-07-29T11:30:51;6.47;;;2.28;;
70052;SDS011;57398;52.032;4.376;2022-07-29T11:33:28;5.50;;;2.15;;
70052;SDS011;57398;52.032;4.376;2022-07-29T11:36:16;4.93;;;1.88;;
70052;SDS011;57398;52.032;4.376;2022-07-29T11:38:43;5.60;;;2.20;;
70052;SDS011;57398;52.032;4.376;2022-07-29T11:41:24;5.10;;;1.92;;
70052;SDS011;57398;52.032;4.376;2022-07-29T11:43:54;5.53;;;1.73;;
70052;SDS011;57398;52.032;4.376;2022-07-29T11:49:08;5.38;;;1.50;;
70052;SDS011;57398;52.032;4.376;2022-07-29T11:51:39;6.43;;;1.80;;
70052;SDS011;57398;52.032;4.376;2022-07-29T11:54:13;5.55;;;1.70;;
70052;SDS011;57398;52.032;4.376;2022-07-29T11:56:52;3.72;;;1.60;;
70052;SDS011;57398;52.032;4.376;2022-07-29T11:59:22;4.30;;;1.60;;
70052;SDS011;57398;52.032;4.376;2022-07-29T12:02:00;5.00;;;1.73;;
70052;SDS011;57398;52.032;4.376;2022-07-29T12:04:48;9.73;;;1.73;;
70052;SDS011;57398;52.032;4.376;2022-07-29T12:07:17;3.63;;;1.55;;
70052;SDS011;57398;52.032;4.376;2022-07-29T12:09:49;6.20;;;1.42;;
70052;SDS011;57398;52.032;4.376;2022-07-29T12:12:17;5.22;;;1.55;;
70052;SDS011;57398;52.032;4.376;2022-07-29T12:14:46;6.25;;;1.67;;
70052;SDS011;57398;52.032;4.376;2022-07-29T12:17:24;6.47;;;1.80;;
70052;SDS011;57398;52.032;4.376;2022-07-29T12:19:58;4.45;;;1.70;;
70052;SDS011;57398;52.032;4.376;2022-07-29T12:22:28;7.00;;;1.60;;
70052;SDS011;57398;52.032;4.376;2022-07-29T12:24:59;4.90;;;1.60;;
70052;SDS011;57398;52.032;4.376;2022-07-29T12:27:57;6.60;;;1.80;;
70052;SDS011;57398;52.032;4.376;2022-07-29T12:30:35;4.20;;;1.80;;
70052;SDS011;57398;52.032;4.376;2022-07-29T12:33:16;6.35;;;1.63;;
70052;SDS011;57398;52.032;4.376;2022-07-29T12:35:45;5.10;;;1.60;;
70052;SDS011;57398;52.032;4.376;2022-07-29T12:38:28;5.20;;;1.63;;
70052;SDS011;57398;52.032;4.376;2022-07-29T12:40:56;5.05;;;1.63;;
70052;SDS011;57398;52.032;4.376;2022-07-29T12:43:24;4.53;;;1.67;;
70052;SDS011;57398;52.032;4.376;2022-07-29T12:45:54;4.90;;;1.90;;
70052;SDS011;57398;52.032;4.376;2022-07-29T12:48:32;4.82;;;1.67;;
70052;SDS011;57398;52.032;4.376;2022-07-29T12:51:00;5.25;;;1.80;;
70052;SDS011;57398;52.032;4.376;2022-07-29T12:53:28;5.00;;;1.90;;
70052;SDS011;57398;52.032;4.376;2022-07-29T12:55:56;5.73;;;2.30;;
70052;SDS011;57398;52.032;4.376;2022-07-29T12:58:26;4.95;;;1.80;;
70052;SDS011;57398;52.032;4.376;2022-07-29T13:01:06;4.10;;;1.80;;
70052;SDS011;57398;52.032;4.376;2022-07-29T13:03:43;5.20;;;1.60;;
70052;SDS011;57398;52.032;4.376;2022-07-29T13:06:30;9.73;;;2.88;;
70052;SDS011;57398;52.032;4.376;2022-07-29T13:08:58;5.83;;;2.00;;
70052;SDS011;57398;52.032;4.376;2022-07-29T13:11:29;4.70;;;2.13;;
70052;SDS011;57398;52.032;4.376;2022-07-29T13:13:59;5.40;;;2.00;;
70052;SDS011;57398;52.032;4.376;2022-07-29T13:16:33;7.88;;;2.05;;
70052;SDS011;57398;52.032;4.376;2022-07-29T13:19:07;4.97;;;1.80;;
70052;SDS011;57398;52.032;4.376;2022-07-29T13:21:35;4.97;;;1.80;;
70052;SDS011;57398;52.032;4.376;2022-07-29T13:24:03;7.82;;;2.10;;
70052;SDS011;57398;52.032;4.376;2022-07-29T13:26:31;6.70;;;2.10;;
70052;SDS011;57398;52.032;4.376;2022-07-29T13:28:58;6.05;;;2.10;;
70052;SDS011;57398;52.032;4.376;2022-07-29T13:31:26;4.25;;;2.10;;
70052;SDS011;57398;52.032;4.376;2022-07-29T13:33:55;6.47;;;1.90;;
70052;SDS011;57398;52.032;4.376;2022-07-29T13:36:22;5.53;;;1.90;;
70052;SDS011;57398;52.032;4.376;2022-07-29T13:38:50;5.47;;;1.90;;
70052;SDS011;57398;52.032;4.376;2022-07-29T13:41:17;4.20;;;1.70;;
70052;SDS011;57398;52.032;4.376;2022-07-29T13:43:45;5.85;;;1.80;;
70052;SDS011;57398;52.032;4.376;2022-07-29T13:46:15;6.50;;;2.00;;
70052;SDS011;57398;52.032;4.376;2022-07-29T13:48:42;6.13;;;2.20;;
70052;SDS011;57398;52.032;4.376;2022-07-29T13:51:15;7.63;;;1.92;;
70052;SDS011;57398;52.032;4.376;2022-07-29T13:53:43;5.60;;;1.83;;
70052;SDS011;57398;52.032;4.376;2022-07-29T13:56:11;5.35;;;2.22;;
70052;SDS011;57398;52.032;4.376;2022-07-29T13:58:38;6.27;;;1.90;;
70052;SDS011;57398;52.032;4.376;2022-07-29T14:01:08;6.60;;;1.98;;
70052;SDS011;57398;52.032;4.376;2022-07-29T14:03:35;6.78;;;1.80;;
70052;SDS011;57398;52.032;4.376;2022-07-29T14:06:11;4.75;;;1.73;;
70052;SDS011;57398;52.032;4.376;2022-07-29T14:08:40;4.60;;;1.95;;
70052;SDS011;57398;52.032;4.376;2022-07-29T14:11:09;5.13;;;2.10;;
70052;SDS011;57398;52.032;4.376;2022-07-29T14:13:36;5.28;;;2.10;;
70052;SDS011;57398;52.032;4.376;2022-07-29T14:16:05;6.43;;;2.35;;
70052;SDS011;57398;52.032;4.376;2022-07-29T14:18:33;9.32;;;2.42;;
70052;SDS011;57398;52.032;4.376;2022-07-29T14:21:00;5.05;;;1.80;;
70052;SDS011;57398;52.032;4.376;2022-07-29T14:23:28;6.90;;;1.90;;
70052;SDS011;57398;52.032;4.376;2022-07-29T14:25:57;5.20;;;1.90;;
70052;SDS011;57398;52.032;4.376;2022-07-29T14:28:24;5.32;;;1.92;;
70052;SDS011;57398;52.032;4.376;2022-07-29T14:30:54;7.40;;;2.10;;
70052;SDS011;57398;52.032;4.376;2022-07-29T14:33:22;6.25;;;2.20;;
70052;SDS011;57398;52.032;4.376;2022-07-29T14:35:49;8.63;;;2.00;;
70052;SDS011;57398;52.032;4.376;2022-07-29T14:38:17;7.40;;;2.00;;
70052;SDS011;57398;52.032;4.376;2022-07-29T14:40:45;6.00;;;2.10;;
70052;SDS011;57398;52.032;4.376;2022-07-29T14:43:17;5.60;;;2.13;;
70052;SDS011;57398;52.032;4.376;2022-07-29T14:45:46;6.13;;;1.80;;
70052;SDS011;57398;52.032;4.376;2022-07-29T14:48:14;7.57;;;2.23;;
70052;SDS011;57398;52.032;4.376;2022-07-29T14:50:41;7.35;;;2.00;;
70052;SDS011;57398;52.032;4.376;2022-07-29T14:53:10;4.43;;;1.80;;
70052;SDS011;57398;52.032;4.376;2022-07-29T14:55:38;5.70;;;1.70;;
70052;SDS011;57398;52.032;4.376;2022-07-29T14:58:06;4.95;;;1.90;;
70052;SDS011;57398;52.032;4.376;2022-07-29T15:00:42;5.47;;;1.70;;
70052;SDS011;57398;52.032;4.376;2022-07-29T15:03:10;6.53;;;1.67;;
70052;SDS011;57398;52.032;4.376;2022-07-29T15:05:48;5.20;;;1.95;;
70052;SDS011;57398;52.032;4.376;2022-07-29T15:08:15;6.32;;;1.70;;
70052;SDS011;57398;52.032;4.376;2022-07-29T15:10:43;6.85;;;1.77;;
70052;SDS011;57398;52.032;4.376;2022-07-29T15:13:10;4.47;;;1.73;;
70052;SDS011;57398;52.032;4.376;2022-07-29T15:15:38;4.38;;;1.70;;
70052;SDS011;57398;52.032;4.376;2022-07-29T15:18:06;7.13;;;2.08;;
70052;SDS011;57398;52.032;4.376;2022-07-29T15:20:35;6.82;;;1.80;;
70052;SDS011;57398;52.032;4.376;2022-07-29T15:23:02;7.55;;;2.10;;